sensor_id;sensor_type;location;lat;lon;timestamp;temperature;humidity
1476;DHT22;730;48.870;12.542;2024-03-02T00:00:57;7.50;1.00
1476;DHT22;730;48.870;12.542;2024-03-02T00:03:24;7.50;1.00
1476;DHT22;730;48.870;12.542;2024-03-02T00:05:51;7.50;1.00
1476;DHT22;730;48.870;12.542;2024-03-02T00:08:23;7.50;1.10
1476;DHT22;730;48.870;12.542;2024-03-02T00:10:57;7.50;1.00
1476;DHT22;730;48.870;12.542;2024-03-02T00:13:23;7.50;1.00
1476;DHT22;730;48.870;12.542;2024-03-02T00:15:54;7.50;1.10
1476;DHT22;730;48.870;12.542;2024-03-02T00:18:31;7.50;1.20
1476;DHT22;730;48.870;12.542;2024-03-02T00:20:57;7.50;1.30
1476;DHT22;730;48.870;12.542;2024-03-02T00:23:27;7.50;1.30
1476;DHT22;730;48.870;12.542;2024-03-02T00:25:54;7.50;1.20
1476;DHT22;730;48.870;12.542;2024-03-02T00:28:35;7.50;1.20
1476;DHT22;730;48.870;12.542;2024-03-02T00:31:08;7.50;1.30
1476;DHT22;730;48.870;12.542;2024-03-02T00:33:45;7.50;1.30
1476;DHT22;730;48.870;12.542;2024-03-02T00:36:14;7.50;1.40
1476;DHT22;730;48.870;12.542;2024-03-02T00:38:51;7.50;1.20
1476;DHT22;730;48.870;12.542;2024-03-02T00:41:31;7.50;1.40
1476;DHT22;730;48.870;12.542;2024-03-02T00:43:59;7.40;1.20
1476;DHT22;730;48.870;12.542;2024-03-02T00:46:29;7.40;1.40
1476;DHT22;730;48.870;12.542;2024-03-02T00:48:58;7.40;1.40
1476;DHT22;730;48.870;12.542;2024-03-02T00:51:34;7.40;1.40
1476;DHT22;730;48.870;12.542;2024-03-02T00:54:05;7.50;1.60
1476;DHT22;730;48.870;12.542;2024-03-02T00:56:32;7.50;1.40
1476;DHT22;730;48.870;12.542;2024-03-02T00:58:58;7.50;1.40
1476;DHT22;730;48.870;12.542;2024-03-02T01:01:24;7.50;1.40
1476;DHT22;730;48.870;12.542;2024-03-02T01:03:50;7.50;1.30
1476;DHT22;730;48.870;12.542;2024-03-02T01:06:25;7.50;1.40
1476;DHT22;730;48.870;12.542;2024-03-02T01:08:51;7.40;1.50
1476;DHT22;730;48.870;12.542;2024-03-02T01:11:17;7.40;1.60
1476;DHT22;730;48.870;12.542;2024-03-02T01:13:45;7.40;1.60
1476;DHT22;730;48.870;12.542;2024-03-02T01:16:12;7.40;1.70
1476;DHT22;730;48.870;12.542;2024-03-02T01:18:38;7.40;2.00
1476;DHT22;730;48.870;12.542;2024-03-02T01:21:04;7.40;1.80
1476;DHT22;730;48.870;12.542;2024-03-02T01:23:30;7.40;1.90
1476;DHT22;730;48.870;12.542;2024-03-02T01:25:56;7.40;1.80
1476;DHT22;730;48.870;12.542;2024-03-02T01:28:22;7.40;1.90
1476;DHT22;730;48.870;12.542;2024-03-02T01:30:48;7.40;2.10
1476;DHT22;730;48.870;12.542;2024-03-02T01:33:16;7.40;2.20
1476;DHT22;730;48.870;12.542;2024-03-02T01:35:42;7.40;2.20
1476;DHT22;730;48.870;12.542;2024-03-02T01:38:08;7.30;2.60
1476;DHT22;730;48.870;12.542;2024-03-02T01:40:35;7.30;2.70
1476;DHT22;730;48.870;12.542;2024-03-02T01:43:01;7.30;2.80
1476;DHT22;730;48.870;12.542;2024-03-02T01:45:28;7.20;2.80
1476;DHT22;730;48.870;12.542;2024-03-02T01:47:54;7.20;3.50
1476;DHT22;730;48.870;12.542;2024-03-02T01:50:27;7.20;3.30
1476;DHT22;730;48.870;12.542;2024-03-02T01:52:55;7.20;3.30
1476;DHT22;730;48.870;12.542;2024-03-02T01:55:21;7.20;3.50
1476;DHT22;730;48.870;12.542;2024-03-02T01:57:49;7.20;3.80
1476;DHT22;730;48.870;12.542;2024-03-02T02:00:17;7.20;3.80
1476;DHT22;730;48.870;12.542;2024-03-02T02:02:43;7.20;3.90
1476;DHT22;730;48.870;12.542;2024-03-02T02:05:10;7.20;3.70
1476;DHT22;730;48.870;12.542;2024-03-02T02:07:36;7.20;4.00
1476;DHT22;730;48.870;12.542;2024-03-02T02:10:02;7.20;4.30
1476;DHT22;730;48.870;12.542;2024-03-02T02:12:28;7.20;4.20
1476;DHT22;730;48.870;12.542;2024-03-02T02:14:54;7.20;4.40
1476;DHT22;730;48.870;12.542;2024-03-02T02:17:20;7.20;4.50
1476;DHT22;730;48.870;12.542;2024-03-02T02:19:47;7.20;4.60
1476;DHT22;730;48.870;12.542;2024-03-02T02:22:13;7.20;4.70
1476;DHT22;730;48.870;12.542;2024-03-02T02:24:40;7.20;4.70
1476;DHT22;730;48.870;12.542;2024-03-02T02:27:08;7.20;4.60
1476;DHT22;730;48.870;12.542;2024-03-02T02:29:34;7.20;4.90
1476;DHT22;730;48.870;12.542;2024-03-02T02:32:00;7.20;4.80
1476;DHT22;730;48.870;12.542;2024-03-02T02:34:26;7.20;4.80
1476;DHT22;730;48.870;12.542;2024-03-02T02:36:53;7.20;4.70
1476;DHT22;730;48.870;12.542;2024-03-02T02:39:21;7.30;4.60
1476;DHT22;730;48.870;12.542;2024-03-02T02:41:48;7.30;4.30
1476;DHT22;730;48.870;12.542;2024-03-02T02:44:14;7.30;4.20
1476;DHT22;730;48.870;12.542;2024-03-02T02:46:40;7.40;4.00
1476;DHT22;730;48.870;12.542;2024-03-02T02:49:07;7.40;3.80
1476;DHT22;730;48.870;12.542;2024-03-02T02:51:33;7.40;3.80
1476;DHT22;730;48.870;12.542;2024-03-02T02:54:00;7.40;3.80
1476;DHT22;730;48.870;12.542;2024-03-02T02:56:26;7.40;3.60
1476;DHT22;730;48.870;12.542;2024-03-02T02:58:52;7.40;3.60
1476;DHT22;730;48.870;12.542;2024-03-02T03:01:18;7.40;3.40
1476;DHT22;730;48.870;12.542;2024-03-02T03:03:45;7.50;3.30
1476;DHT22;730;48.870;12.542;2024-03-02T03:06:11;7.40;3.20
1476;DHT22;730;48.870;12.542;2024-03-02T03:08:38;7.50;3.30
1476;DHT22;730;48.870;12.542;2024-03-02T03:11:04;7.50;3.10
1476;DHT22;730;48.870;12.542;2024-03-02T03:13:31;7.50;3.00
1476;DHT22;730;48.870;12.542;2024-03-02T03:15:57;7.50;2.80
1476;DHT22;730;48.870;12.542;2024-03-02T03:18:23;7.50;2.80
1476;DHT22;730;48.870;12.542;2024-03-02T03:20:49;7.50;2.80
1476;DHT22;730;48.870;12.542;2024-03-02T03:23:16;7.50;2.70
1476;DHT22;730;48.870;12.542;2024-03-02T03:25:43;7.50;2.70
1476;DHT22;730;48.870;12.542;2024-03-02T03:28:09;7.40;2.80
1476;DHT22;730;48.870;12.542;2024-03-02T03:30:39;7.30;3.20
1476;DHT22;730;48.870;12.542;2024-03-02T03:33:05;7.30;3.50
1476;DHT22;730;48.870;12.542;2024-03-02T03:35:32;7.30;3.60
1476;DHT22;730;48.870;12.542;2024-03-02T03:37:58;7.30;3.60
1476;DHT22;730;48.870;12.542;2024-03-02T03:40:24;7.30;3.50
1476;DHT22;730;48.870;12.542;2024-03-02T03:42:50;7.40;3.50
1476;DHT22;730;48.870;12.542;2024-03-02T03:45:17;7.40;3.30
1476;DHT22;730;48.870;12.542;2024-03-02T03:47:44;7.40;3.40
1476;DHT22;730;48.870;12.542;2024-03-02T03:50:10;7.30;3.20
1476;DHT22;730;48.870;12.542;2024-03-02T03:52:36;7.30;3.60
1476;DHT22;730;48.870;12.542;2024-03-02T03:55:02;7.30;3.90
1476;DHT22;730;48.870;12.542;2024-03-02T03:57:28;7.30;3.90
1476;DHT22;730;48.870;12.542;2024-03-02T03:59:54;7.20;3.90
1476;DHT22;730;48.870;12.542;2024-03-02T04:02:20;7.20;4.30
1476;DHT22;730;48.870;12.542;2024-03-02T04:04:46;7.30;4.40
1476;DHT22;730;48.870;12.542;2024-03-02T04:07:12;7.30;4.20
1476;DHT22;730;48.870;12.542;2024-03-02T04:09:38;7.30;4.10
1476;DHT22;730;48.870;12.542;2024-03-02T04:12:04;7.30;4.00
1476;DHT22;730;48.870;12.542;2024-03-02T04:14:30;7.20;4.00
1476;DHT22;730;48.870;12.542;2024-03-02T04:16:56;7.30;4.10
1476;DHT22;730;48.870;12.542;2024-03-02T04:19:23;7.30;3.80
1476;DHT22;730;48.870;12.542;2024-03-02T04:21:49;7.40;3.80
1476;DHT22;730;48.870;12.542;2024-03-02T04:24:15;7.30;3.70
1476;DHT22;730;48.870;12.542;2024-03-02T04:26:41;7.30;3.80
1476;DHT22;730;48.870;12.542;2024-03-02T04:29:07;7.30;3.40
1476;DHT22;730;48.870;12.542;2024-03-02T04:31:33;7.30;3.70
1476;DHT22;730;48.870;12.542;2024-03-02T04:33:59;7.30;3.80
1476;DHT22;730;48.870;12.542;2024-03-02T04:36:25;7.30;3.80
1476;DHT22;730;48.870;12.542;2024-03-02T04:38:51;7.30;3.90
1476;DHT22;730;48.870;12.542;2024-03-02T04:41:18;7.30;3.70
1476;DHT22;730;48.870;12.542;2024-03-02T04:43:44;7.30;3.70
1476;DHT22;730;48.870;12.542;2024-03-02T04:46:10;7.40;3.40
1476;DHT22;730;48.870;12.542;2024-03-02T04:48:36;7.40;3.40
1476;DHT22;730;48.870;12.542;2024-03-02T04:51:12;7.30;3.20
1476;DHT22;730;48.870;12.542;2024-03-02T04:53:39;7.30;3.50
1476;DHT22;730;48.870;12.542;2024-03-02T04:56:05;7.30;3.30
1476;DHT22;730;48.870;12.542;2024-03-02T04:58:49;7.30;3.70
1476;DHT22;730;48.870;12.542;2024-03-02T05:01:16;7.30;3.60
1476;DHT22;730;48.870;12.542;2024-03-02T05:03:43;7.40;3.50
1476;DHT22;730;48.870;12.542;2024-03-02T05:06:09;7.40;3.30
1476;DHT22;730;48.870;12.542;2024-03-02T05:08:35;7.40;3.40
1476;DHT22;730;48.870;12.542;2024-03-02T05:11:01;7.40;3.30
1476;DHT22;730;48.870;12.542;2024-03-02T05:13:47;7.40;3.20
1476;DHT22;730;48.870;12.542;2024-03-02T05:16:13;7.40;3.10
1476;DHT22;730;48.870;12.542;2024-03-02T05:18:39;7.40;2.80
1476;DHT22;730;48.870;12.542;2024-03-02T05:21:05;7.40;3.10
1476;DHT22;730;48.870;12.542;2024-03-02T05:23:36;7.40;3.00
1476;DHT22;730;48.870;12.542;2024-03-02T05:26:03;7.40;3.10
1476;DHT22;730;48.870;12.542;2024-03-02T05:28:29;7.30;3.30
1476;DHT22;730;48.870;12.542;2024-03-02T05:30:55;7.30;3.30
1476;DHT22;730;48.870;12.542;2024-03-02T05:33:21;7.30;3.60
1476;DHT22;730;48.870;12.542;2024-03-02T05:35:48;7.30;3.60
1476;DHT22;730;48.870;12.542;2024-03-02T05:38:16;7.30;3.80
1476;DHT22;730;48.870;12.542;2024-03-02T05:40:42;7.20;3.90
1476;DHT22;730;48.870;12.542;2024-03-02T05:43:08;7.20;4.00
1476;DHT22;730;48.870;12.542;2024-03-02T05:45:34;7.20;4.20
1476;DHT22;730;48.870;12.542;2024-03-02T05:48:00;7.20;4.20
1476;DHT22;730;48.870;12.542;2024-03-02T05:50:26;7.20;4.00
1476;DHT22;730;48.870;12.542;2024-03-02T05:52:52;7.10;4.60
1476;DHT22;730;48.870;12.542;2024-03-02T05:55:19;7.10;4.30
1476;DHT22;730;48.870;12.542;2024-03-02T05:57:45;7.10;4.50
1476;DHT22;730;48.870;12.542;2024-03-02T06:00:21;7.10;4.80
1476;DHT22;730;48.870;12.542;2024-03-02T06:02:47;7.00;4.70
1476;DHT22;730;48.870;12.542;2024-03-02T06:05:14;7.00;4.80
1476;DHT22;730;48.870;12.542;2024-03-02T06:07:41;7.10;5.00
1476;DHT22;730;48.870;12.542;2024-03-02T06:10:07;7.10;5.00
1476;DHT22;730;48.870;12.542;2024-03-02T06:12:34;7.00;5.00
1476;DHT22;730;48.870;12.542;2024-03-02T06:15:00;6.90;5.30
1476;DHT22;730;48.870;12.542;2024-03-02T06:17:27;7.00;5.30
1476;DHT22;730;48.870;12.542;2024-03-02T06:19:53;7.00;5.30
1476;DHT22;730;48.870;12.542;2024-03-02T06:22:19;6.90;5.10
1476;DHT22;730;48.870;12.542;2024-03-02T06:24:45;6.90;5.30
1476;DHT22;730;48.870;12.542;2024-03-02T06:27:11;6.80;5.50
1476;DHT22;730;48.870;12.542;2024-03-02T06:29:37;6.90;5.50
1476;DHT22;730;48.870;12.542;2024-03-02T06:32:04;6.90;5.40
1476;DHT22;730;48.870;12.542;2024-03-02T06:34:31;6.90;5.20
1476;DHT22;730;48.870;12.542;2024-03-02T06:36:57;7.00;5.10
1476;DHT22;730;48.870;12.542;2024-03-02T06:39:23;7.00;4.90
1476;DHT22;730;48.870;12.542;2024-03-02T06:41:49;7.00;5.00
1476;DHT22;730;48.870;12.542;2024-03-02T06:44:15;7.00;4.80
1476;DHT22;730;48.870;12.542;2024-03-02T06:46:41;7.00;4.70
1476;DHT22;730;48.870;12.542;2024-03-02T06:49:07;7.00;4.50
1476;DHT22;730;48.870;12.542;2024-03-02T06:51:34;7.10;4.40
1476;DHT22;730;48.870;12.542;2024-03-02T06:54:00;7.10;4.20
1476;DHT22;730;48.870;12.542;2024-03-02T06:56:27;7.10;3.80
1476;DHT22;730;48.870;12.542;2024-03-02T06:58:53;7.10;3.90
1476;DHT22;730;48.870;12.542;2024-03-02T07:01:19;7.10;4.00
1476;DHT22;730;48.870;12.542;2024-03-02T07:03:46;7.20;4.00
1476;DHT22;730;48.870;12.542;2024-03-02T07:06:12;7.10;3.80
1476;DHT22;730;48.870;12.542;2024-03-02T07:08:38;7.10;4.20
1476;DHT22;730;48.870;12.542;2024-03-02T07:11:04;7.10;4.00
1476;DHT22;730;48.870;12.542;2024-03-02T07:13:31;7.10;4.10
1476;DHT22;730;48.870;12.542;2024-03-02T07:15:57;7.20;4.20
1476;DHT22;730;48.870;12.542;2024-03-02T07:18:49;7.20;3.90
1476;DHT22;730;48.870;12.542;2024-03-02T07:21:18;7.20;3.90
1476;DHT22;730;48.870;12.542;2024-03-02T07:23:44;7.20;4.00
1476;DHT22;730;48.870;12.542;2024-03-02T07:26:10;7.30;3.90
1476;DHT22;730;48.870;12.542;2024-03-02T07:28:36;7.30;3.70
1476;DHT22;730;48.870;12.542;2024-03-02T07:31:04;7.30;3.80
1476;DHT22;730;48.870;12.542;2024-03-02T07:33:31;7.30;3.80
1476;DHT22;730;48.870;12.542;2024-03-02T07:35:57;7.30;3.90
1476;DHT22;730;48.870;12.542;2024-03-02T07:38:25;7.40;3.60
1476;DHT22;730;48.870;12.542;2024-03-02T07:40:52;7.40;3.80
1476;DHT22;730;48.870;12.542;2024-03-02T07:43:21;7.40;3.80
1476;DHT22;730;48.870;12.542;2024-03-02T07:45:48;7.40;3.40
1476;DHT22;730;48.870;12.542;2024-03-02T07:48:15;7.40;3.20
1476;DHT22;730;48.870;12.542;2024-03-02T07:50:41;7.40;2.90
1476;DHT22;730;48.870;12.542;2024-03-02T07:53:09;7.50;3.10
1476;DHT22;730;48.870;12.542;2024-03-02T07:55:35;7.40;3.00
1476;DHT22;730;48.870;12.542;2024-03-02T07:58:01;7.50;3.10
1476;DHT22;730;48.870;12.542;2024-03-02T08:00:27;7.50;3.80
1476;DHT22;730;48.870;12.542;2024-03-02T08:02:54;7.50;2.90
1476;DHT22;730;48.870;12.542;2024-03-02T08:05:21;7.50;2.80
1476;DHT22;730;48.870;12.542;2024-03-02T08:07:47;7.60;2.70
1476;DHT22;730;48.870;12.542;2024-03-02T08:10:13;7.60;2.60
1476;DHT22;730;48.870;12.542;2024-03-02T08:12:40;7.50;2.80
1476;DHT22;730;48.870;12.542;2024-03-02T08:15:06;7.60;2.90
1476;DHT22;730;48.870;12.542;2024-03-02T08:17:33;7.70;2.80
1476;DHT22;730;48.870;12.542;2024-03-02T08:19:59;7.70;2.80
1476;DHT22;730;48.870;12.542;2024-03-02T08:22:25;7.70;2.70
1476;DHT22;730;48.870;12.542;2024-03-02T08:24:51;7.70;2.30
1476;DHT22;730;48.870;12.542;2024-03-02T08:27:18;7.80;2.30
1476;DHT22;730;48.870;12.542;2024-03-02T08:29:44;7.80;1.90
1476;DHT22;730;48.870;12.542;2024-03-02T08:32:10;7.90;1.80
1476;DHT22;730;48.870;12.542;2024-03-02T08:34:36;7.90;1.30
1476;DHT22;730;48.870;12.542;2024-03-02T08:37:02;7.90;1.40
1476;DHT22;730;48.870;12.542;2024-03-02T08:39:28;7.90;1.50
1476;DHT22;730;48.870;12.542;2024-03-02T08:41:54;8.00;1.90
1476;DHT22;730;48.870;12.542;2024-03-02T08:44:21;8.10;1.80
1476;DHT22;730;48.870;12.542;2024-03-02T08:46:47;8.10;1.10
1476;DHT22;730;48.870;12.542;2024-03-02T08:49:13;8.10;1.00
1476;DHT22;730;48.870;12.542;2024-03-02T08:51:39;8.20;1.00
1476;DHT22;730;48.870;12.542;2024-03-02T08:54:05;8.20;1.00
1476;DHT22;730;48.870;12.542;2024-03-02T08:56:32;8.20;1.00
1476;DHT22;730;48.870;12.542;2024-03-02T08:58:58;8.30;1.00
1476;DHT22;730;48.870;12.542;2024-03-02T09:01:24;8.30;1.00
1476;DHT22;730;48.870;12.542;2024-03-02T09:03:50;8.40;1.00
1476;DHT22;730;48.870;12.542;2024-03-02T09:06:16;8.40;1.00
1476;DHT22;730;48.870;12.542;2024-03-02T09:08:43;8.40;1.00
1476;DHT22;730;48.870;12.542;2024-03-02T09:11:10;8.40;1.00
1476;DHT22;730;48.870;12.542;2024-03-02T09:13:37;8.50;1.00
1476;DHT22;730;48.870;12.542;2024-03-02T09:16:04;8.60;1.00
1476;DHT22;730;48.870;12.542;2024-03-02T09:18:31;8.60;1.00
1476;DHT22;730;48.870;12.542;2024-03-02T09:20:57;8.60;1.00
1476;DHT22;730;48.870;12.542;2024-03-02T09:23:23;8.70;1.00
1476;DHT22;730;48.870;12.542;2024-03-02T09:25:49;8.70;1.00
1476;DHT22;730;48.870;12.542;2024-03-02T09:28:15;8.80;1.00
1476;DHT22;730;48.870;12.542;2024-03-02T09:30:41;9.00;1.00
1476;DHT22;730;48.870;12.542;2024-03-02T09:33:08;9.10;1.00
1476;DHT22;730;48.870;12.542;2024-03-02T09:35:34;9.30;1.00
1476;DHT22;730;48.870;12.542;2024-03-02T09:38:05;9.50;1.00
1476;DHT22;730;48.870;12.542;2024-03-02T09:40:32;9.70;1.00
1476;DHT22;730;48.870;12.542;2024-03-02T09:42:58;9.90;1.00
1476;DHT22;730;48.870;12.542;2024-03-02T09:45:25;10.20;1.00
1476;DHT22;730;48.870;12.542;2024-03-02T09:47:51;10.40;1.00
1476;DHT22;730;48.870;12.542;2024-03-02T09:50:17;10.60;1.00
1476;DHT22;730;48.870;12.542;2024-03-02T09:52:44;10.80;1.00
1476;DHT22;730;48.870;12.542;2024-03-02T09:55:13;11.00;1.00
1476;DHT22;730;48.870;12.542;2024-03-02T09:57:41;11.30;1.00
1476;DHT22;730;48.870;12.542;2024-03-02T10:00:09;11.50;1.00
1476;DHT22;730;48.870;12.542;2024-03-02T10:02:41;11.70;1.00
1476;DHT22;730;48.870;12.542;2024-03-02T10:05:11;11.80;1.00
1476;DHT22;730;48.870;12.542;2024-03-02T10:07:40;11.90;1.00
1476;DHT22;730;48.870;12.542;2024-03-02T10:10:14;12.10;1.00
1476;DHT22;730;48.870;12.542;2024-03-02T10:12:41;12.00;1.00
1476;DHT22;730;48.870;12.542;2024-03-02T10:15:07;12.10;1.00
1476;DHT22;730;48.870;12.542;2024-03-02T10:17:35;12.20;1.00
1476;DHT22;730;48.870;12.542;2024-03-02T10:20:21;12.20;1.00
1476;DHT22;730;48.870;12.542;2024-03-02T10:22:49;12.20;1.00
1476;DHT22;730;48.870;12.542;2024-03-02T10:25:35;12.20;1.00
1476;DHT22;730;48.870;12.542;2024-03-02T10:28:02;12.10;1.00
1476;DHT22;730;48.870;12.542;2024-03-02T10:30:28;12.20;1.00
1476;DHT22;730;48.870;12.542;2024-03-02T10:32:55;12.30;1.00
1476;DHT22;730;48.870;12.542;2024-03-02T10:35:24;12.30;1.00
1476;DHT22;730;48.870;12.542;2024-03-02T10:37:52;12.30;1.00
1476;DHT22;730;48.870;12.542;2024-03-02T10:40:21;12.20;1.00
1476;DHT22;730;48.870;12.542;2024-03-02T10:42:48;12.30;1.00
1476;DHT22;730;48.870;12.542;2024-03-02T10:45:16;12.20;1.00
1476;DHT22;730;48.870;12.542;2024-03-02T10:47:47;12.20;1.00
1476;DHT22;730;48.870;12.542;2024-03-02T10:50:13;12.20;1.00
1476;DHT22;730;48.870;12.542;2024-03-02T10:52:39;12.20;1.00
1476;DHT22;730;48.870;12.542;2024-03-02T10:55:06;12.20;1.00
1476;DHT22;730;48.870;12.542;2024-03-02T10:57:51;12.30;1.00
1476;DHT22;730;48.870;12.542;2024-03-02T11:00:19;12.40;1.00
1476;DHT22;730;48.870;12.542;2024-03-02T11:02:52;12.40;1.00
1476;DHT22;730;48.870;12.542;2024-03-02T11:05:28;12.50;1.00
1476;DHT22;730;48.870;12.542;2024-03-02T11:08:00;12.40;1.00
1476;DHT22;730;48.870;12.542;2024-03-02T11:10:37;12.40;1.00
1476;DHT22;730;48.870;12.542;2024-03-02T11:13:09;12.40;1.00
1476;DHT22;730;48.870;12.542;2024-03-02T11:15:37;12.40;1.00
1476;DHT22;730;48.870;12.542;2024-03-02T11:18:06;12.40;1.00
1476;DHT22;730;48.870;12.542;2024-03-02T11:20:38;12.40;1.00
1476;DHT22;730;48.870;12.542;2024-03-02T11:23:06;12.40;1.00
1476;DHT22;730;48.870;12.542;2024-03-02T11:25:32;12.40;1.00
1476;DHT22;730;48.870;12.542;2024-03-02T11:28:00;12.50;1.00
1476;DHT22;730;48.870;12.542;2024-03-02T11:32:59;12.40;1.00
1476;DHT22;730;48.870;12.542;2024-03-02T11:35:28;12.50;1.00
1476;DHT22;730;48.870;12.542;2024-03-02T11:37:56;12.60;1.00
1476;DHT22;730;48.870;12.542;2024-03-02T11:40:25;12.60;1.00
1476;DHT22;730;48.870;12.542;2024-03-02T11:42:52;12.70;1.00
1476;DHT22;730;48.870;12.542;2024-03-02T11:45:27;12.70;1.00
1476;DHT22;730;48.870;12.542;2024-03-02T11:47:58;12.80;1.00
1476;DHT22;730;48.870;12.542;2024-03-02T11:50:41;12.90;1.00
1476;DHT22;730;48.870;12.542;2024-03-02T11:53:09;13.00;1.00
1476;DHT22;730;48.870;12.542;2024-03-02T11:56:04;13.10;1.00
1476;DHT22;730;48.870;12.542;2024-03-02T11:58:34;13.10;1.00
1476;DHT22;730;48.870;12.542;2024-03-02T12:01:02;13.20;1.00
1476;DHT22;730;48.870;12.542;2024-03-02T12:03:28;13.10;1.00
1476;DHT22;730;48.870;12.542;2024-03-02T12:05:55;13.10;1.00
1476;DHT22;730;48.870;12.542;2024-03-02T12:08:22;13.20;1.00
1476;DHT22;730;48.870;12.542;2024-03-02T12:11:02;13.20;1.00
1476;DHT22;730;48.870;12.542;2024-03-02T12:13:28;13.30;1.00
1476;DHT22;730;48.870;12.542;2024-03-02T12:15:55;13.30;1.00
1476;DHT22;730;48.870;12.542;2024-03-02T12:18:24;13.30;1.00
1476;DHT22;730;48.870;12.542;2024-03-02T12:20:52;13.40;1.00
1476;DHT22;730;48.870;12.542;2024-03-02T12:23:23;13.50;1.00
1476;DHT22;730;48.870;12.542;2024-03-02T12:25:50;13.60;1.00
1476;DHT22;730;48.870;12.542;2024-03-02T12:28:19;13.70;1.00
1476;DHT22;730;48.870;12.542;2024-03-02T12:30:56;13.90;1.00
1476;DHT22;730;48.870;12.542;2024-03-02T12:33:32;14.00;1.00
1476;DHT22;730;48.870;12.542;2024-03-02T12:35:59;14.00;1.00
1476;DHT22;730;48.870;12.542;2024-03-02T12:38:26;14.00;1.00
1476;DHT22;730;48.870;12.542;2024-03-02T12:40:52;14.00;1.00
1476;DHT22;730;48.870;12.542;2024-03-02T12:43:18;14.00;1.00
1476;DHT22;730;48.870;12.542;2024-03-02T12:45:44;14.10;1.00
1476;DHT22;730;48.870;12.542;2024-03-02T12:48:10;14.10;1.00
1476;DHT22;730;48.870;12.542;2024-03-02T12:50:37;14.20;1.00
1476;DHT22;730;48.870;12.542;2024-03-02T12:53:03;14.40;1.00
1476;DHT22;730;48.870;12.542;2024-03-02T12:55:29;14.50;1.00
1476;DHT22;730;48.870;12.542;2024-03-02T12:57:56;14.60;1.00
1476;DHT22;730;48.870;12.542;2024-03-02T13:00:22;14.70;1.00
1476;DHT22;730;48.870;12.542;2024-03-02T13:02:49;14.80;1.00
1476;DHT22;730;48.870;12.542;2024-03-02T13:05:16;14.90;1.00
1476;DHT22;730;48.870;12.542;2024-03-02T13:07:42;15.00;1.00
1476;DHT22;730;48.870;12.542;2024-03-02T13:10:09;15.10;1.00
1476;DHT22;730;48.870;12.542;2024-03-02T13:12:36;15.20;1.00
1476;DHT22;730;48.870;12.542;2024-03-02T13:15:03;15.30;1.00
1476;DHT22;730;48.870;12.542;2024-03-02T13:17:29;15.40;1.00
1476;DHT22;730;48.870;12.542;2024-03-02T13:19:59;15.60;1.00
1476;DHT22;730;48.870;12.542;2024-03-02T13:22:26;15.70;1.00
1476;DHT22;730;48.870;12.542;2024-03-02T13:24:53;15.90;1.00
1476;DHT22;730;48.870;12.542;2024-03-02T13:27:22;16.20;1.00
1476;DHT22;730;48.870;12.542;2024-03-02T13:29:48;16.30;1.00
1476;DHT22;730;48.870;12.542;2024-03-02T13:32:15;16.40;1.00
1476;DHT22;730;48.870;12.542;2024-03-02T13:34:42;16.50;1.00
1476;DHT22;730;48.870;12.542;2024-03-02T13:37:09;16.70;1.00
1476;DHT22;730;48.870;12.542;2024-03-02T13:39:35;16.90;1.00
1476;DHT22;730;48.870;12.542;2024-03-02T13:42:09;17.00;1.00
1476;DHT22;730;48.870;12.542;2024-03-02T13:44:35;17.30;1.00
1476;DHT22;730;48.870;12.542;2024-03-02T13:47:01;17.40;1.00
1476;DHT22;730;48.870;12.542;2024-03-02T13:49:27;17.60;1.00
1476;DHT22;730;48.870;12.542;2024-03-02T13:52:00;17.70;1.00
1476;DHT22;730;48.870;12.542;2024-03-02T13:54:29;17.90;1.00
1476;DHT22;730;48.870;12.542;2024-03-02T13:56:56;18.10;1.00
1476;DHT22;730;48.870;12.542;2024-03-02T13:59:24;18.40;1.00
1476;DHT22;730;48.870;12.542;2024-03-02T14:01:51;18.70;1.00
1476;DHT22;730;48.870;12.542;2024-03-02T14:04:17;18.90;1.00
1476;DHT22;730;48.870;12.542;2024-03-02T14:06:43;19.10;1.00
1476;DHT22;730;48.870;12.542;2024-03-02T14:09:09;19.40;1.00
1476;DHT22;730;48.870;12.542;2024-03-02T14:11:35;19.70;1.00
1476;DHT22;730;48.870;12.542;2024-03-02T14:14:02;20.20;1.00
1476;DHT22;730;48.870;12.542;2024-03-02T14:16:28;20.50;1.00
1476;DHT22;730;48.870;12.542;2024-03-02T14:18:54;20.90;1.00
1476;DHT22;730;48.870;12.542;2024-03-02T14:21:20;21.40;1.00
1476;DHT22;730;48.870;12.542;2024-03-02T14:23:47;21.80;1.00
1476;DHT22;730;48.870;12.542;2024-03-02T14:26:13;22.40;1.00
1476;DHT22;730;48.870;12.542;2024-03-02T14:28:39;23.00;1.00
1476;DHT22;730;48.870;12.542;2024-03-02T14:31:05;23.40;1.00
1476;DHT22;730;48.870;12.542;2024-03-02T14:33:31;24.00;1.00
1476;DHT22;730;48.870;12.542;2024-03-02T14:35:57;24.70;1.00
1476;DHT22;730;48.870;12.542;2024-03-02T14:38:24;25.40;1.00
1476;DHT22;730;48.870;12.542;2024-03-02T14:40:50;26.20;1.00
1476;DHT22;730;48.870;12.542;2024-03-02T14:43:16;27.10;1.00
1476;DHT22;730;48.870;12.542;2024-03-02T14:45:43;28.10;1.00
1476;DHT22;730;48.870;12.542;2024-03-02T14:48:09;29.10;1.00
1476;DHT22;730;48.870;12.542;2024-03-02T14:50:35;30.20;1.00
1476;DHT22;730;48.870;12.542;2024-03-02T14:53:01;31.20;1.00
1476;DHT22;730;48.870;12.542;2024-03-02T14:55:37;32.10;1.00
1476;DHT22;730;48.870;12.542;2024-03-02T14:58:03;32.90;1.00
1476;DHT22;730;48.870;12.542;2024-03-02T15:00:29;33.30;1.00
1476;DHT22;730;48.870;12.542;2024-03-02T15:03:05;33.60;1.00
1476;DHT22;730;48.870;12.542;2024-03-02T15:05:35;33.60;1.00
1476;DHT22;730;48.870;12.542;2024-03-02T15:08:01;33.40;1.00
1476;DHT22;730;48.870;12.542;2024-03-02T15:10:30;33.10;1.00
1476;DHT22;730;48.870;12.542;2024-03-02T15:12:57;32.60;1.00
1476;DHT22;730;48.870;12.542;2024-03-02T15:15:23;32.10;1.00
1476;DHT22;730;48.870;12.542;2024-03-02T15:17:49;31.60;1.00
1476;DHT22;730;48.870;12.542;2024-03-02T15:20:16;31.00;1.00
1476;DHT22;730;48.870;12.542;2024-03-02T15:22:42;30.70;1.00
1476;DHT22;730;48.870;12.542;2024-03-02T15:25:08;30.60;1.00
1476;DHT22;730;48.870;12.542;2024-03-02T15:27:34;30.40;1.00
1476;DHT22;730;48.870;12.542;2024-03-02T15:30:00;30.20;1.00
1476;DHT22;730;48.870;12.542;2024-03-02T15:32:26;30.20;1.00
1476;DHT22;730;48.870;12.542;2024-03-02T15:34:55;30.20;1.00
1476;DHT22;730;48.870;12.542;2024-03-02T15:37:21;30.50;1.00
1476;DHT22;730;48.870;12.542;2024-03-02T15:39:47;30.70;1.00
1476;DHT22;730;48.870;12.542;2024-03-02T15:42:14;31.00;1.00
1476;DHT22;730;48.870;12.542;2024-03-02T15:44:40;31.10;1.00
1476;DHT22;730;48.870;12.542;2024-03-02T15:47:07;30.90;1.00
1476;DHT22;730;48.870;12.542;2024-03-02T15:49:33;30.60;1.00
1476;DHT22;730;48.870;12.542;2024-03-02T15:52:00;30.20;1.00
1476;DHT22;730;48.870;12.542;2024-03-02T15:54:27;29.80;1.00
1476;DHT22;730;48.870;12.542;2024-03-02T15:56:53;29.40;1.00
1476;DHT22;730;48.870;12.542;2024-03-02T15:59:19;29.10;1.00
1476;DHT22;730;48.870;12.542;2024-03-02T16:01:45;29.00;1.00
1476;DHT22;730;48.870;12.542;2024-03-02T16:04:11;28.80;1.00
1476;DHT22;730;48.870;12.542;2024-03-02T16:06:37;28.60;1.00
1476;DHT22;730;48.870;12.542;2024-03-02T16:09:09;28.50;1.00
1476;DHT22;730;48.870;12.542;2024-03-02T16:11:36;28.40;1.00
1476;DHT22;730;48.870;12.542;2024-03-02T16:14:03;28.10;1.00
1476;DHT22;730;48.870;12.542;2024-03-02T16:16:29;27.90;1.00
1476;DHT22;730;48.870;12.542;2024-03-02T16:18:55;27.60;1.00
1476;DHT22;730;48.870;12.542;2024-03-02T16:21:21;27.30;1.00
1476;DHT22;730;48.870;12.542;2024-03-02T16:23:51;26.90;1.00
1476;DHT22;730;48.870;12.542;2024-03-02T16:26:17;26.30;1.00
1476;DHT22;730;48.870;12.542;2024-03-02T16:28:43;25.70;1.00
1476;DHT22;730;48.870;12.542;2024-03-02T16:31:09;25.00;1.00